Etusivu
METAR-TAF:

METAR-TAF

Lentoasemat :

Pointe-Noire, Kongo

Leveyspiiri: 04-49S, Pituuspiiri: 011-54E, korkeus merenpinnasta: 17 m

Tämänhetkinen sää

Tämä raportti tehtiin 54 minuuttia sitten, kello 18.00 UTC
Tuuli 10 kn etelästä/lounaasta
Lämpötila 27°C
Kosteus 94%
Ilmanpaine 1009 hPa
Näkyvyys 10 km tai enemmän
Muutamia pilviä 1300 ft:n korkeudessa
Muutamia pilviä 3000 ft:n korkeudessa, Cumulonimbus.

METAR: FCPP 201800Z 20010KT 9999 FEW013 FEW030CB 27/26 Q1009 NOSIG

Aika: 19:54 (18:54 UTC)

Sääennuste

Tämä raportti tehtiin 1 tunti ja 54 minuuttia sitten, kello 17.00 UTC
Ennuste voimassa 20. päivästä klo 18 UTC - 21. päivään klo 18 UTC
Tuuli 5 kn etelästä/lounaasta
Näkyvyys: 9000 m
Muutamia pilviä 1500 ft:n korkeudessa
Tulossa
21. päivästä klo 12 UTC - 21. päivään klo 14 UTC
Muutamia pilviä 2000 ft:n korkeudessa
Muutamia pilviä 3000 ft:n korkeudessa, Cumulonimbus.

TAF: FCPP 201700Z 2018/2118 20005KT 9000 FEW015 BECMG 2112/2114 FEW020 FEW030CB

Säähavainnot ja -ennusteet yli 4000 lentoasemalta (METAR- ja TAF-raportit).

Käytössä olevat sääasemat on merkitty karttaan keltaisilla ja punaisilla pisteillä.

Aseta hiiri pisteen päälle nähdäksesi sääaseman nimen.

Klikkaa sitten nähdäksesi säähavainnot ja -ennusteet.

Kartan vaihtaminen: klikkaa mustalla rastilla varustettuja vihreitä pisteitä, niin voit zoomata sisään; viivalla varustettua vihreää pistettä, niin voit zoomata ulos tai vihreitä nuolia, niin pääset viereisille kartoille.


METAR-TAF: